createdAt,value
2018-11-07T00:02:11.149Z,11.00
2018-11-07T00:04:39.440Z,11.00
2018-11-07T00:07:08.065Z,11.10
2018-11-07T00:09:36.022Z,11.20
2018-11-07T00:12:03.993Z,11.20
2018-11-07T00:14:31.959Z,11.10
2018-11-07T00:16:59.895Z,11.20
2018-11-07T00:19:28.780Z,11.00
2018-11-07T00:21:56.646Z,10.90
2018-11-07T00:24:25.133Z,10.80
2018-11-07T00:26:57.995Z,10.80
2018-11-07T00:29:26.188Z,10.80
2018-11-07T00:31:55.438Z,10.80
2018-11-07T00:34:23.341Z,10.80
2018-11-07T00:36:58.363Z,10.80
2018-11-07T00:39:27.339Z,10.80
2018-11-07T00:41:56.177Z,10.90
2018-11-07T00:44:24.823Z,10.90
2018-11-07T00:46:53.194Z,10.90
2018-11-07T00:49:21.054Z,11.10
2018-11-07T00:51:48.948Z,11.10
2018-11-07T00:54:20.353Z,11.10
2018-11-07T00:56:52.785Z,11.10
2018-11-07T00:59:22.791Z,11.00
2018-11-07T01:01:54.017Z,11.00
2018-11-07T01:04:21.960Z,10.90
2018-11-07T01:06:56.834Z,11.00
2018-11-07T01:09:25.051Z,11.00
2018-11-07T01:11:53.045Z,11.10
2018-11-07T01:14:27.071Z,11.00
2018-11-07T01:16:55.640Z,11.10
2018-11-07T01:19:26.904Z,11.00
2018-11-07T01:21:54.859Z,10.80
2018-11-07T01:24:26.549Z,10.90
2018-11-07T01:27:01.874Z,10.80
2018-11-07T01:29:35.686Z,10.80
2018-11-07T01:32:06.516Z,10.70
2018-11-07T01:34:39.406Z,10.60
2018-11-07T01:37:08.055Z,10.60
2018-11-07T01:39:36.055Z,10.60
2018-11-07T01:42:05.027Z,10.60
2018-11-07T01:44:38.405Z,10.60
2018-11-07T01:47:09.034Z,10.70
2018-11-07T01:49:42.746Z,10.60
2018-11-07T01:52:15.909Z,10.70
2018-11-07T01:54:44.449Z,10.80
2018-11-07T01:57:13.443Z,10.80
2018-11-07T01:59:43.478Z,10.80
2018-11-07T02:02:11.452Z,10.80
2018-11-07T02:04:39.697Z,11.00
2018-11-07T02:07:08.088Z,10.90
2018-11-07T02:09:36.043Z,10.90
2018-11-07T02:12:04.911Z,10.90
2018-11-07T02:14:35.810Z,10.80
2018-11-07T02:17:03.875Z,10.80
2018-11-07T02:19:31.942Z,10.70
2018-11-07T02:21:59.920Z,10.70
2018-11-07T02:24:35.905Z,10.60
2018-11-07T02:27:09.748Z,10.80
2018-11-07T02:29:37.780Z,10.60
2018-11-07T02:32:05.712Z,10.60
2018-11-07T02:34:34.561Z,10.60
2018-11-07T02:37:06.340Z,10.60
2018-11-07T02:39:34.305Z,10.60
2018-11-07T02:42:02.311Z,10.70
2018-11-07T02:44:34.233Z,10.70
2018-11-07T02:47:02.712Z,10.70
2018-11-07T02:49:31.054Z,10.70
2018-11-07T02:51:59.582Z,10.60
2018-11-07T02:54:27.507Z,10.60
2018-11-07T02:56:55.469Z,10.60
2018-11-07T02:59:23.474Z,10.70
2018-11-07T03:01:51.355Z,10.90
2018-11-07T03:04:21.958Z,10.90
2018-11-07T03:06:53.313Z,10.70
2018-11-07T03:09:21.566Z,10.60
2018-11-07T03:11:54.320Z,10.60
2018-11-07T03:14:25.198Z,10.70
2018-11-07T03:16:53.565Z,10.70
2018-11-07T03:19:21.637Z,10.70
2018-11-07T03:21:49.847Z,10.70
2018-11-07T03:24:19.094Z,10.80
2018-11-07T03:26:46.993Z,10.80
2018-11-07T03:29:14.975Z,10.80
2018-11-07T03:31:42.914Z,11.00
2018-11-07T03:34:13.351Z,10.90
2018-11-07T03:36:48.401Z,10.90
2018-11-07T03:39:16.679Z,10.90
2018-11-07T03:41:44.549Z,11.10
2018-11-07T03:44:19.220Z,11.00
2018-11-07T03:46:48.435Z,11.00
2018-11-07T03:49:16.359Z,11.10
2018-11-07T03:51:44.640Z,11.00
2018-11-07T03:54:13.108Z,10.90
2018-11-07T03:56:40.972Z,10.80
2018-11-07T03:59:09.561Z,10.80
2018-11-07T04:01:37.524Z,10.90
2018-11-07T04:04:08.299Z,10.90
2018-11-07T04:06:36.367Z,10.80
2018-11-07T04:09:07.756Z,10.90
2018-11-07T04:11:35.957Z,11.00
2018-11-07T04:14:03.901Z,10.90
2018-11-07T04:16:31.877Z,10.90
2018-11-07T04:19:08.844Z,10.80
2018-11-07T04:21:37.177Z,10.80
2018-11-07T04:24:05.930Z,10.80
2018-11-07T04:26:35.643Z,10.80
2018-11-07T04:29:06.814Z,11.00
2018-11-07T04:31:34.838Z,10.80
2018-11-07T04:34:03.268Z,10.70
2018-11-07T04:36:31.246Z,10.50
2018-11-07T04:38:59.348Z,10.50
2018-11-07T04:41:27.867Z,10.70
2018-11-07T04:43:56.353Z,10.60
2018-11-07T04:46:24.227Z,10.50
2018-11-07T04:48:52.116Z,10.40
2018-11-07T04:51:19.984Z,10.50
2018-11-07T04:53:47.944Z,10.70
2018-11-07T04:56:15.853Z,10.70
2018-11-07T04:58:45.184Z,10.80
2018-11-07T05:01:13.140Z,10.80
2018-11-07T05:03:41.985Z,10.70
2018-11-07T05:06:09.870Z,10.70
2018-11-07T05:08:39.298Z,10.70
2018-11-07T05:11:07.198Z,10.80
2018-11-07T05:13:36.406Z,10.90
2018-11-07T05:16:04.523Z,10.80
2018-11-07T05:18:33.319Z,10.80
2018-11-07T05:21:03.193Z,10.80
2018-11-07T05:23:32.856Z,10.90
2018-11-07T05:26:01.043Z,10.90
2018-11-07T05:28:29.141Z,10.70
2018-11-07T05:30:57.073Z,10.70
2018-11-07T05:33:24.975Z,10.80
2018-11-07T05:35:52.908Z,10.80
2018-11-07T05:38:22.516Z,10.80
2018-11-07T05:40:50.779Z,10.90
2018-11-07T05:43:18.721Z,11.00
2018-11-07T05:45:46.704Z,10.80
2018-11-07T05:48:14.772Z,10.80
2018-11-07T05:50:42.664Z,10.80
2018-11-07T05:53:11.685Z,10.80
2018-11-07T05:55:39.755Z,10.80
2018-11-07T05:58:07.659Z,10.80
2018-11-07T06:00:35.643Z,10.90
2018-11-07T06:03:03.607Z,10.40
2018-11-07T06:05:32.438Z,10.60
2018-11-07T06:08:00.541Z,10.40
2018-11-07T06:10:41.951Z,10.50
2018-11-07T06:13:10.541Z,10.60
2018-11-07T06:15:39.074Z,10.60
2018-11-07T06:18:07.868Z,10.60
2018-11-07T06:20:42.325Z,10.70
2018-11-07T06:23:11.766Z,10.60
2018-11-07T06:25:43.013Z,10.60
2018-11-07T06:28:21.818Z,10.50
2018-11-07T06:30:50.998Z,10.40
2018-11-07T06:33:19.367Z,10.40
2018-11-07T06:35:51.969Z,10.40
2018-11-07T06:38:20.466Z,10.40
2018-11-07T06:40:50.022Z,10.50
2018-11-07T06:43:18.159Z,10.50
2018-11-07T06:45:46.987Z,10.60
2018-11-07T06:48:15.009Z,10.60
2018-11-07T06:50:49.237Z,10.60
2018-11-07T06:53:17.175Z,10.60
2018-11-07T06:55:48.454Z,10.50
2018-11-07T06:58:16.820Z,10.60
2018-11-07T07:00:44.775Z,10.70
2018-11-07T07:03:12.908Z,10.90
2018-11-07T07:05:40.844Z,10.80
2018-11-07T07:08:08.767Z,10.70
2018-11-07T07:10:36.873Z,10.60
2018-11-07T07:13:06.661Z,10.70
2018-11-07T07:15:34.887Z,10.70
2018-11-07T07:18:02.942Z,10.60
2018-11-07T07:20:30.830Z,10.50
2018-11-07T07:23:05.968Z,10.60
2018-11-07T07:25:34.045Z,10.70
2018-11-07T07:28:03.549Z,10.80
2018-11-07T07:30:31.756Z,10.60
2018-11-07T07:32:59.741Z,10.60
2018-11-07T07:35:33.541Z,10.70
2018-11-07T07:38:01.709Z,10.80
2018-11-07T07:40:30.477Z,10.90
2018-11-07T07:42:59.064Z,10.80
2018-11-07T07:45:30.252Z,10.80
2018-11-07T07:48:05.525Z,11.00
2018-11-07T07:50:34.446Z,10.90
2018-11-07T07:53:03.707Z,10.90
2018-11-07T07:55:35.403Z,10.60
2018-11-07T07:58:04.393Z,10.70
2018-11-07T08:00:36.143Z,10.90
2018-11-07T08:03:04.525Z,11.00
2018-11-07T08:05:32.499Z,11.00
2018-11-07T08:08:00.976Z,10.60
2018-11-07T08:10:29.399Z,10.10
2018-11-07T08:12:57.366Z,10.40
2018-11-07T08:15:25.360Z,10.60
2018-11-07T08:17:53.253Z,10.70
2018-11-07T08:20:21.226Z,10.80
2018-11-07T08:22:50.420Z,10.70
2018-11-07T08:25:18.404Z,10.70
2018-11-07T08:27:48.085Z,10.80
2018-11-07T08:30:21.176Z,10.80
2018-11-07T08:32:58.519Z,11.00
2018-11-07T08:35:32.504Z,10.90
2018-11-07T08:38:01.769Z,10.30
2018-11-07T08:40:37.752Z,10.40
2018-11-07T08:43:08.287Z,10.60
2018-11-07T08:45:42.438Z,10.40
2018-11-07T08:48:10.555Z,10.50
2018-11-07T08:50:42.417Z,10.40
2018-11-07T08:53:10.953Z,10.60
2018-11-07T08:55:46.154Z,10.60
2018-11-07T08:58:14.083Z,10.20
2018-11-07T09:00:47.604Z,10.00
2018-11-07T09:03:16.857Z,10.20
2018-11-07T09:05:45.011Z,10.10
2018-11-07T09:08:13.152Z,10.20
2018-11-07T09:10:41.140Z,10.20
2018-11-07T09:13:10.609Z,10.40
2018-11-07T09:15:38.982Z,10.30
2018-11-07T09:18:10.588Z,10.60
2018-11-07T09:20:47.749Z,10.80
2018-11-07T09:23:17.090Z,11.00
2018-11-07T09:25:56.465Z,11.00
2018-11-07T09:28:24.756Z,10.70
2018-11-07T09:30:52.728Z,10.60
2018-11-07T09:33:22.882Z,10.60
2018-11-07T09:35:51.103Z,10.60
2018-11-07T09:38:20.125Z,10.70
2018-11-07T09:40:52.316Z,10.40
2018-11-07T09:43:23.058Z,10.50
2018-11-07T09:45:52.193Z,10.80
2018-11-07T09:48:22.217Z,11.20
2018-11-07T09:50:53.417Z,11.30
2018-11-07T09:53:23.535Z,11.30
2018-11-07T09:55:53.193Z,10.90
2018-11-07T09:58:21.237Z,10.70
2018-11-07T10:00:51.812Z,11.00
2018-11-07T10:03:25.032Z,11.30
2018-11-07T10:05:53.565Z,11.10
2018-11-07T10:08:21.601Z,10.90
2018-11-07T10:10:51.345Z,11.00
2018-11-07T10:16:01.349Z,11.40
2018-11-07T10:18:30.198Z,11.40
2018-11-07T10:21:02.046Z,11.50
2018-11-07T10:23:31.372Z,11.60
2018-11-07T10:25:59.977Z,11.20
2018-11-07T10:28:31.008Z,11.10
2018-11-07T10:30:59.893Z,11.00
2018-11-07T10:33:28.182Z,10.90
2018-11-07T10:36:04.741Z,11.20
2018-11-07T10:38:33.514Z,11.30
2018-11-07T10:41:04.515Z,11.40
2018-11-07T10:43:38.360Z,11.60
2018-11-07T10:46:07.149Z,11.80
2018-11-07T10:48:35.446Z,11.80
2018-11-07T10:51:07.217Z,11.50
2018-11-07T10:53:35.990Z,11.70
2018-11-07T10:56:09.678Z,11.50
2018-11-07T10:58:38.727Z,11.20
2018-11-07T11:02:15.367Z,11.40
2018-11-07T11:07:25.681Z,11.70
2018-11-07T11:09:54.114Z,11.20
2018-11-07T11:12:23.162Z,11.30
2018-11-07T11:14:59.543Z,11.70
2018-11-07T11:17:31.812Z,11.90
2018-11-07T11:20:01.164Z,11.70
2018-11-07T11:22:29.878Z,11.80
2018-11-07T11:25:06.172Z,11.70
2018-11-07T11:27:34.774Z,11.90
2018-11-07T11:32:58.064Z,12.10
2018-11-07T11:35:27.041Z,11.80
2018-11-07T11:38:01.089Z,12.00
2018-11-07T11:40:35.928Z,12.20
2018-11-07T11:43:14.742Z,12.20
2018-11-07T11:45:49.259Z,11.90
2018-11-07T11:48:20.643Z,11.90
2018-11-07T11:50:56.258Z,12.00
2018-11-07T11:53:29.882Z,12.10
2018-11-07T11:56:11.369Z,12.20
2018-11-07T11:58:41.902Z,12.10
2018-11-07T12:01:13.758Z,12.30
2018-11-07T12:03:42.137Z,12.40
2018-11-07T12:06:10.978Z,12.80
2018-11-07T12:08:39.235Z,12.70
2018-11-07T12:11:09.022Z,12.90
2018-11-07T12:13:37.646Z,13.00
2018-11-07T12:16:06.902Z,12.80
2018-11-07T12:18:35.697Z,12.50
2018-11-07T12:21:09.661Z,12.50
2018-11-07T12:23:41.947Z,12.50
2018-11-07T12:26:10.046Z,12.50
2018-11-07T12:28:38.579Z,12.70
2018-11-07T12:31:08.150Z,12.80
2018-11-07T12:33:38.342Z,12.80
2018-11-07T12:36:06.563Z,13.10
2018-11-07T12:38:35.991Z,13.20
2018-11-07T12:41:05.453Z,13.40
2018-11-07T12:43:35.008Z,13.40
2018-11-07T12:46:05.918Z,13.40
2018-11-07T12:48:36.527Z,13.50
2018-11-07T12:51:07.061Z,13.10
2018-11-07T12:53:35.941Z,13.20
2018-11-07T12:56:05.690Z,12.90
2018-11-07T12:58:36.692Z,12.70
2018-11-07T13:01:07.427Z,12.80
2018-11-07T13:03:35.517Z,12.90
2018-11-07T13:06:05.391Z,13.00
2018-11-07T13:08:35.727Z,13.00
2018-11-07T13:11:05.185Z,12.90
2018-11-07T13:13:33.445Z,12.80
2018-11-07T13:16:03.843Z,12.80
2018-11-07T13:18:36.697Z,13.10
2018-11-07T13:21:06.073Z,13.40
2018-11-07T13:23:34.160Z,13.10
2018-11-07T13:26:03.029Z,13.20
2018-11-07T13:28:32.017Z,13.40
2018-11-07T13:31:00.731Z,13.70
2018-11-07T13:33:29.645Z,13.50
2018-11-07T13:38:34.877Z,13.70
2018-11-07T13:41:04.264Z,13.90
2018-11-07T13:43:34.524Z,13.80
2018-11-07T13:46:04.398Z,13.80
2018-11-07T13:48:35.282Z,13.80
2018-11-07T13:51:04.973Z,13.60
2018-11-07T13:53:34.281Z,13.60
2018-11-07T13:56:02.716Z,13.70
2018-11-07T13:58:30.805Z,13.90
2018-11-07T14:00:59.882Z,14.10
2018-11-07T14:03:28.724Z,14.10
2018-11-07T14:05:57.745Z,14.00
2018-11-07T14:08:26.800Z,13.90
2018-11-07T14:10:56.478Z,14.10
2018-11-07T14:13:26.094Z,13.90
2018-11-07T14:15:56.563Z,14.00
2018-11-07T14:18:25.434Z,14.00
2018-11-07T14:20:53.517Z,14.00
2018-11-07T14:23:21.720Z,13.90
2018-11-07T14:25:50.523Z,13.90
2018-11-07T14:28:20.335Z,13.90
2018-11-07T14:30:55.618Z,14.10
2018-11-07T14:33:25.670Z,14.20
2018-11-07T14:35:53.850Z,14.00
2018-11-07T14:38:21.872Z,14.00
2018-11-07T14:40:50.607Z,13.90
2018-11-07T14:43:18.949Z,13.60
2018-11-07T14:45:54.629Z,13.80
2018-11-07T14:48:22.609Z,13.80
2018-11-07T14:50:50.760Z,13.80
2018-11-07T14:53:19.294Z,13.60
2018-11-07T14:55:48.450Z,13.80
2018-11-07T14:58:20.192Z,13.90
2018-11-07T15:00:56.773Z,13.80
2018-11-07T15:03:24.949Z,13.70
2018-11-07T15:05:54.698Z,13.80
2018-11-07T15:08:23.340Z,13.70
2018-11-07T15:10:51.815Z,13.60
2018-11-07T15:13:20.406Z,13.70
2018-11-07T15:15:49.507Z,13.70
2018-11-07T15:18:18.453Z,13.70
2018-11-07T15:20:47.324Z,13.60
2018-11-07T15:23:16.023Z,13.60
2018-11-07T15:25:46.908Z,13.60
2018-11-07T15:28:16.731Z,13.50
2018-11-07T15:30:44.670Z,13.40
2018-11-07T15:33:13.172Z,13.40
2018-11-07T15:35:41.287Z,13.30
2018-11-07T15:38:09.476Z,13.30
2018-11-07T15:40:38.031Z,13.20
2018-11-07T15:43:06.748Z,13.20
2018-11-07T15:45:38.236Z,13.10
2018-11-07T15:48:08.750Z,13.10
2018-11-07T15:50:43.174Z,13.00
2018-11-07T15:53:11.996Z,13.00
2018-11-07T15:55:41.199Z,12.90
2018-11-07T15:58:10.126Z,13.00
2018-11-07T16:00:38.552Z,12.90
2018-11-07T16:03:08.873Z,12.80
2018-11-07T16:05:37.562Z,12.80
2018-11-07T16:08:07.104Z,12.60
2018-11-07T16:10:37.356Z,12.60
2018-11-07T16:13:08.092Z,12.50
2018-11-07T16:15:44.956Z,12.60
2018-11-07T16:18:19.301Z,12.60
2018-11-07T16:20:47.756Z,12.50
2018-11-07T16:23:17.346Z,12.40
2018-11-07T16:25:45.948Z,12.30
2018-11-07T16:28:15.496Z,12.30
2018-11-07T16:30:57.099Z,12.30
2018-11-07T16:33:25.477Z,12.30
2018-11-07T16:35:55.580Z,12.40
2018-11-07T16:38:24.555Z,12.30
2018-11-07T16:40:53.174Z,12.20
2018-11-07T16:43:21.997Z,12.20
2018-11-07T16:45:50.960Z,12.30
2018-11-07T16:48:21.836Z,12.20
2018-11-07T16:50:50.786Z,12.30
2018-11-07T16:53:19.904Z,12.20
2018-11-07T16:55:48.467Z,12.20
2018-11-07T16:58:18.112Z,12.20
2018-11-07T17:01:00.777Z,12.20
2018-11-07T17:03:36.118Z,12.10
2018-11-07T17:06:06.842Z,12.10
2018-11-07T17:08:35.744Z,12.10
2018-11-07T17:11:08.005Z,12.10
2018-11-07T17:13:43.204Z,12.10
2018-11-07T17:16:11.336Z,12.00
2018-11-07T17:18:41.666Z,12.10
2018-11-07T17:21:10.177Z,12.10
2018-11-07T17:23:44.394Z,12.20
2018-11-07T17:26:12.822Z,12.10
2018-11-07T17:28:42.495Z,12.10
2018-11-07T17:31:10.716Z,12.10
2018-11-07T17:33:41.956Z,12.00
2018-11-07T17:36:12.599Z,12.00
2018-11-07T17:38:42.856Z,12.20
2018-11-07T17:41:15.796Z,12.10
2018-11-07T17:43:46.509Z,12.00
2018-11-07T17:46:24.704Z,11.90
2018-11-07T17:48:56.748Z,11.80
2018-11-07T17:51:26.282Z,11.60
2018-11-07T17:53:56.436Z,11.60
2018-11-07T17:56:24.871Z,11.60
2018-11-07T17:58:52.805Z,11.60
2018-11-07T18:01:21.031Z,11.60
2018-11-07T18:03:49.584Z,11.50
2018-11-07T18:06:25.275Z,11.40
2018-11-07T18:09:07.940Z,11.20
2018-11-07T18:11:36.158Z,11.20
2018-11-07T18:14:05.916Z,11.20
2018-11-07T18:16:33.878Z,11.30
2018-11-07T18:19:04.157Z,11.40
2018-11-07T18:21:36.941Z,11.50
2018-11-07T18:24:11.156Z,11.50
2018-11-07T18:26:43.842Z,11.50
2018-11-07T18:29:14.896Z,11.50
2018-11-07T18:31:48.260Z,11.60
2018-11-07T18:34:16.717Z,11.50
2018-11-07T18:36:55.925Z,11.70
2018-11-07T18:39:25.391Z,11.90
2018-11-07T18:41:53.576Z,12.00
2018-11-07T18:44:22.193Z,12.00
2018-11-07T18:46:51.718Z,12.00
2018-11-07T18:49:22.807Z,12.00
2018-11-07T18:51:58.923Z,12.00
2018-11-07T18:54:39.199Z,12.00
2018-11-07T18:57:22.165Z,12.00
2018-11-07T18:59:52.260Z,12.20
2018-11-07T19:02:24.631Z,12.30
2018-11-07T19:07:35.791Z,12.40
2018-11-07T19:10:06.863Z,12.30
2018-11-07T19:12:44.078Z,12.40
2018-11-07T19:18:15.471Z,12.10
2018-11-07T19:20:54.320Z,12.10
2018-11-07T19:23:25.632Z,12.00
2018-11-07T19:25:58.679Z,12.20
2018-11-07T19:28:34.732Z,12.20
2018-11-07T19:31:06.517Z,12.20
2018-11-07T19:33:39.097Z,12.40
2018-11-07T19:36:11.420Z,12.50
2018-11-07T19:38:49.066Z,12.50
2018-11-07T19:41:26.665Z,12.40
2018-11-07T19:43:54.608Z,12.40
2018-11-07T19:46:35.190Z,12.30
2018-11-07T19:54:29.009Z,12.20
2018-11-07T19:59:38.599Z,12.40
2018-11-07T20:02:17.793Z,12.40
2018-11-07T20:04:50.951Z,12.50
2018-11-07T20:07:23.978Z,12.50
2018-11-07T20:09:56.069Z,12.40
2018-11-07T20:12:37.910Z,12.40
2018-11-07T20:15:07.236Z,12.50
2018-11-07T20:17:35.829Z,12.40
2018-11-07T20:20:06.343Z,12.50
2018-11-07T20:22:41.247Z,12.50
2018-11-07T20:25:11.393Z,12.40
2018-11-07T20:27:53.414Z,12.50
2018-11-07T20:30:22.784Z,12.50
2018-11-07T20:32:59.616Z,12.40
2018-11-07T20:35:37.113Z,12.30
2018-11-07T20:38:06.459Z,12.30
2018-11-07T20:40:35.331Z,12.30
2018-11-07T20:43:06.685Z,12.30
2018-11-07T20:45:51.807Z,12.40
2018-11-07T20:48:21.226Z,12.60
2018-11-07T20:50:50.100Z,12.50
2018-11-07T20:56:07.217Z,12.40
2018-11-07T21:01:10.870Z,12.60
2018-11-07T21:03:39.153Z,12.70
2018-11-07T21:06:10.730Z,12.60
2018-11-07T21:08:44.415Z,12.60
2018-11-07T21:11:14.753Z,12.50
2018-11-07T21:13:45.121Z,12.60
2018-11-07T21:16:13.076Z,12.70
2018-11-07T21:18:47.601Z,12.70
2018-11-07T21:21:18.146Z,12.60
2018-11-07T21:23:47.383Z,12.80
2018-11-07T21:26:18.206Z,12.80
2018-11-07T21:28:46.876Z,12.70
2018-11-07T21:34:08.781Z,12.70
2018-11-07T21:36:45.360Z,12.80
2018-11-07T21:39:15.894Z,12.70
2018-11-07T21:41:52.550Z,12.70
2018-11-07T21:44:25.226Z,12.60
2018-11-07T21:46:54.238Z,12.60
2018-11-07T21:49:22.525Z,12.50
2018-11-07T21:51:51.059Z,12.50
2018-11-07T21:54:20.281Z,12.50
2018-11-07T21:56:50.165Z,12.60
2018-11-07T21:59:18.566Z,12.60
2018-11-07T22:01:59.258Z,12.60
2018-11-07T22:04:30.724Z,12.70
2018-11-07T22:07:03.583Z,12.60
2018-11-07T22:09:31.737Z,12.70
2018-11-07T22:14:36.385Z,12.70
2018-11-07T22:17:04.383Z,12.80
2018-11-07T22:19:32.895Z,12.80
2018-11-07T22:22:02.754Z,12.80
2018-11-07T22:24:33.377Z,12.90
2018-11-07T22:27:07.214Z,12.80
2018-11-07T22:29:36.702Z,12.70
2018-11-07T22:32:05.102Z,12.80
2018-11-07T22:34:34.299Z,12.80
2018-11-07T22:37:02.359Z,12.80
2018-11-07T22:39:30.250Z,12.70
2018-11-07T22:41:58.458Z,12.80
2018-11-07T22:44:26.391Z,12.80
2018-11-07T22:46:56.981Z,12.80
2018-11-07T22:49:29.188Z,12.80
2018-11-07T22:51:57.942Z,12.80
2018-11-07T22:54:26.643Z,12.70
2018-11-07T22:56:54.640Z,12.60
2018-11-07T22:59:22.836Z,12.70
2018-11-07T23:01:50.880Z,12.80
2018-11-07T23:04:18.786Z,12.70
2018-11-07T23:06:46.850Z,12.60
2018-11-07T23:09:15.855Z,12.70
2018-11-07T23:11:44.524Z,12.60
2018-11-07T23:14:13.674Z,12.50
2018-11-07T23:16:44.136Z,12.50
2018-11-07T23:19:15.555Z,12.60
2018-11-07T23:21:43.773Z,12.50
2018-11-07T23:24:11.936Z,12.60
2018-11-07T23:26:40.149Z,12.40
2018-11-07T23:29:08.097Z,12.40
2018-11-07T23:31:37.380Z,12.50
2018-11-07T23:34:06.901Z,12.50
2018-11-07T23:36:35.139Z,12.40
2018-11-07T23:39:05.659Z,12.30
2018-11-07T23:41:33.583Z,12.30
2018-11-07T23:44:01.629Z,12.30
2018-11-07T23:46:29.815Z,12.30
2018-11-07T23:48:58.563Z,12.30
2018-11-07T23:51:26.806Z,12.40
2018-11-07T23:53:54.979Z,12.40
2018-11-07T23:56:22.866Z,12.50
2018-11-07T23:58:50.849Z,12.50
